createdAt,value
2022-07-30T00:00:52.225Z,92.74
2022-07-30T00:03:54.075Z,92.96
2022-07-30T00:06:55.915Z,93.19
2022-07-30T00:09:57.957Z,93.45
2022-07-30T00:12:59.840Z,93.75
2022-07-30T00:16:01.715Z,93.73
2022-07-30T00:19:03.689Z,93.90
2022-07-30T00:22:05.390Z,94.57
2022-07-30T00:25:07.590Z,95.01
2022-07-30T00:28:09.494Z,95.04
2022-07-30T00:31:11.471Z,95.12
2022-07-30T00:34:16.324Z,95.13
2022-07-30T00:37:17.977Z,94.98
2022-07-30T00:40:19.773Z,95.30
2022-07-30T00:43:21.649Z,95.40
2022-07-30T00:46:23.611Z,95.49
2022-07-30T00:49:26.256Z,95.49
2022-07-30T00:52:28.313Z,95.68
2022-07-30T00:55:31.255Z,95.56
2022-07-30T00:58:33.166Z,95.59
2022-07-30T01:01:35.468Z,95.57
2022-07-30T01:04:37.247Z,95.78
2022-07-30T01:07:39.194Z,95.89
2022-07-30T01:10:40.976Z,95.76
2022-07-30T01:13:45.898Z,95.82
2022-07-30T01:16:47.712Z,95.89
2022-07-30T01:19:56.194Z,95.91
2022-07-30T01:23:18.663Z,95.91
2022-07-30T01:26:21.070Z,96.15
2022-07-30T01:29:24.641Z,96.13
2022-07-30T01:32:27.595Z,96.09
2022-07-30T01:35:33.490Z,96.20
2022-07-30T01:38:36.754Z,96.35
2022-07-30T01:41:39.492Z,96.66
2022-07-30T01:44:42.070Z,96.65
2022-07-30T01:47:45.607Z,96.73
2022-07-30T01:50:51.668Z,96.71
2022-07-30T01:53:53.850Z,96.75
2022-07-30T01:56:58.097Z,96.87
2022-07-30T02:00:05.238Z,97.10
2022-07-30T02:03:10.679Z,97.04
2022-07-30T02:06:18.373Z,97.11
2022-07-30T02:09:23.385Z,97.15
2022-07-30T02:12:29.350Z,97.40
2022-07-30T02:15:46.431Z,97.49
2022-07-30T02:18:58.798Z,97.63
2022-07-30T02:22:08.520Z,97.77
2022-07-30T02:25:15.004Z,97.58
2022-07-30T02:28:19.034Z,97.54
2022-07-30T02:31:24.864Z,97.47
2022-07-30T02:34:27.669Z,97.54
2022-07-30T02:37:43.186Z,97.49
2022-07-30T02:40:48.533Z,97.79
2022-07-30T02:43:51.449Z,98.07
2022-07-30T02:46:53.858Z,97.80
2022-07-30T02:49:57.117Z,97.82
2022-07-30T02:53:01.101Z,98.04
2022-07-30T02:56:06.042Z,98.08
2022-07-30T02:59:08.753Z,98.30
2022-07-30T03:02:12.228Z,98.45
2022-07-30T03:05:16.642Z,98.55
2022-07-30T03:08:19.836Z,98.51
2022-07-30T03:11:22.513Z,98.55
2022-07-30T03:14:24.478Z,98.51
2022-07-30T03:17:28.870Z,98.74
2022-07-30T03:20:32.126Z,98.52
2022-07-30T03:23:36.168Z,98.67
2022-07-30T03:26:39.815Z,98.80
2022-07-30T03:29:41.796Z,98.86
2022-07-30T03:32:43.836Z,98.88
2022-07-30T03:35:49.087Z,99.07
2022-07-30T03:38:51.484Z,99.14
2022-07-30T03:41:54.846Z,99.04
2022-07-30T03:44:57.632Z,99.25
2022-07-30T03:47:59.411Z,99.16
2022-07-30T03:51:06.854Z,98.97
2022-07-30T03:54:13.568Z,99.00
2022-07-30T03:57:20.232Z,99.26
2022-07-30T04:00:23.931Z,99.36
2022-07-30T04:03:30.772Z,99.42
2022-07-30T04:06:33.237Z,99.54
2022-07-30T04:09:35.279Z,99.56
2022-07-30T04:12:37.293Z,99.66
2022-07-30T04:16:05.905Z,99.64
2022-07-30T04:19:17.325Z,99.70
2022-07-30T04:22:24.468Z,99.79
2022-07-30T04:25:27.258Z,99.80
2022-07-30T04:28:30.007Z,99.85
2022-07-30T04:31:40.690Z,99.86
2022-07-30T04:34:48.203Z,99.75
2022-07-30T04:37:50.006Z,99.64
2022-07-30T04:40:51.913Z,99.68
2022-07-30T04:43:53.731Z,99.53
2022-07-30T04:46:55.507Z,99.81
2022-07-30T04:49:57.718Z,99.98
2022-07-30T04:52:59.680Z,100.00
2022-07-30T04:56:03.069Z,99.95
2022-07-30T04:59:05.582Z,100.00
2022-07-30T05:02:08.068Z,100.00
2022-07-30T05:05:12.011Z,100.00
2022-07-30T05:08:14.240Z,100.00
2022-07-30T05:11:16.416Z,100.00
2022-07-30T05:14:18.172Z,100.00
2022-07-30T05:17:20.666Z,100.00
2022-07-30T05:20:22.443Z,100.00
2022-07-30T05:23:24.921Z,100.00
2022-07-30T05:26:27.475Z,99.93
2022-07-30T05:29:29.800Z,100.00
2022-07-30T05:32:32.170Z,100.00
2022-07-30T05:35:34.082Z,100.00
2022-07-30T05:38:36.421Z,99.93
2022-07-30T05:41:38.196Z,100.00
2022-07-30T05:44:39.975Z,100.00
2022-07-30T05:47:42.285Z,100.00
2022-07-30T05:50:45.683Z,99.99
2022-07-30T05:53:47.410Z,99.77
2022-07-30T05:56:49.727Z,99.88
2022-07-30T05:59:51.501Z,99.99
2022-07-30T06:02:53.215Z,100.00
2022-07-30T06:05:54.956Z,100.00
2022-07-30T06:08:56.655Z,99.98
2022-07-30T06:11:58.395Z,100.00
2022-07-30T06:15:00.184Z,100.00
2022-07-30T06:18:02.461Z,99.78
2022-07-30T06:21:04.458Z,99.97
2022-07-30T06:24:06.759Z,99.99
2022-07-30T06:27:08.720Z,99.96
2022-07-30T06:30:12.056Z,100.00
2022-07-30T06:33:13.798Z,99.65
2022-07-30T06:36:15.666Z,99.58
2022-07-30T06:39:56.141Z,99.70
2022-07-30T06:42:39.522Z,99.84
2022-07-30T06:45:43.615Z,99.78
2022-07-30T06:48:45.476Z,98.94
2022-07-30T06:51:47.248Z,99.02
2022-07-30T06:54:48.916Z,99.50
2022-07-30T06:57:50.653Z,99.30
2022-07-30T07:00:52.366Z,99.04
2022-07-30T07:03:54.288Z,99.12
2022-07-30T07:06:56.056Z,99.23
2022-07-30T07:09:57.900Z,99.77
2022-07-30T07:13:00.777Z,99.71
2022-07-30T07:16:02.795Z,99.37
2022-07-30T07:19:04.616Z,99.45
2022-07-30T07:22:06.353Z,98.71
2022-07-30T07:25:08.675Z,98.41
2022-07-30T07:28:11.944Z,98.42
2022-07-30T07:32:07.350Z,97.69
2022-07-30T07:34:36.599Z,98.18
2022-07-30T07:37:38.344Z,98.14
2022-07-30T07:40:40.855Z,98.41
2022-07-30T07:43:42.585Z,97.92
2022-07-30T07:46:44.395Z,97.57
2022-07-30T07:49:46.134Z,97.45
2022-07-30T07:52:47.922Z,97.48
2022-07-30T07:55:49.683Z,97.07
2022-07-30T07:58:56.677Z,97.11
2022-07-30T08:01:58.625Z,96.78
2022-07-30T08:05:06.428Z,96.64
2022-07-30T08:08:08.246Z,96.92
2022-07-30T08:11:10.095Z,96.84
2022-07-30T08:14:11.910Z,96.44
2022-07-30T08:17:14.223Z,96.33
2022-07-30T08:20:19.243Z,96.20
2022-07-30T08:23:22.582Z,95.74
2022-07-30T08:26:24.261Z,96.23
2022-07-30T08:29:26.041Z,95.97
2022-07-30T08:32:27.806Z,95.99
2022-07-30T08:35:30.958Z,95.69
2022-07-30T08:38:32.731Z,95.51
2022-07-30T08:41:36.558Z,95.76
2022-07-30T08:44:38.800Z,96.16
2022-07-30T08:47:41.366Z,95.99
2022-07-30T08:50:45.233Z,96.15
2022-07-30T08:53:47.305Z,96.69
2022-07-30T08:56:50.301Z,96.56
2022-07-30T09:00:00.080Z,96.49
2022-07-30T09:03:02.940Z,96.26
2022-07-30T09:06:05.725Z,96.26
2022-07-30T09:09:07.618Z,97.07
2022-07-30T09:12:34.896Z,96.72
2022-07-30T09:15:38.982Z,96.14
2022-07-30T09:18:44.632Z,96.07
2022-07-30T09:22:00.835Z,96.08
2022-07-30T09:25:02.759Z,95.43
2022-07-30T09:28:15.843Z,95.88
2022-07-30T09:31:20.609Z,96.39
2022-07-30T09:34:29.795Z,95.98
2022-07-30T09:37:31.487Z,95.69
2022-07-30T09:40:33.984Z,95.22
2022-07-30T09:43:47.566Z,95.35
2022-07-30T09:46:52.026Z,95.15
2022-07-30T09:50:07.135Z,94.93
2022-07-30T09:53:11.877Z,94.42
2022-07-30T09:56:25.702Z,93.87
2022-07-30T09:59:34.996Z,93.74
2022-07-30T10:02:37.830Z,93.29
2022-07-30T10:05:51.724Z,93.86
2022-07-30T10:08:54.953Z,93.77
2022-07-30T10:12:00.207Z,93.38
2022-07-30T10:15:07.392Z,93.49
2022-07-30T10:18:09.229Z,93.25
2022-07-30T10:21:11.611Z,93.63
2022-07-30T10:24:16.742Z,93.44
2022-07-30T10:27:28.964Z,93.15
2022-07-30T10:30:34.107Z,92.33
2022-07-30T10:33:40.147Z,92.51
2022-07-30T10:36:45.053Z,92.29
2022-07-30T10:40:07.742Z,91.88
2022-07-30T10:43:23.567Z,91.84
2022-07-30T10:47:07.657Z,91.70
2022-07-30T10:50:22.334Z,91.88
2022-07-30T10:53:48.612Z,92.50
2022-07-30T10:57:04.243Z,91.73
2022-07-30T11:00:06.028Z,91.12
2022-07-30T11:03:41.080Z,90.74
2022-07-30T11:06:47.664Z,88.15
2022-07-30T11:10:05.280Z,86.69
2022-07-30T11:13:11.428Z,87.31
2022-07-30T11:16:13.303Z,85.82
2022-07-30T11:19:55.046Z,84.16
2022-07-30T11:22:44.589Z,85.45
2022-07-30T11:25:51.000Z,85.84
2022-07-30T11:28:53.979Z,84.42
2022-07-30T11:31:58.641Z,85.50
2022-07-30T11:35:24.501Z,84.76
2022-07-30T11:38:26.344Z,81.78
2022-07-30T11:41:28.058Z,80.87
2022-07-30T11:44:30.270Z,81.56
2022-07-30T11:47:32.273Z,81.84
2022-07-30T11:50:35.439Z,80.81
2022-07-30T11:53:37.303Z,80.38
2022-07-30T11:57:04.088Z,79.47
2022-07-30T12:00:07.158Z,78.21
2022-07-30T12:03:11.711Z,78.27
2022-07-30T12:06:19.942Z,77.83
2022-07-30T12:09:27.556Z,77.64
2022-07-30T12:12:29.653Z,77.93
2022-07-30T12:15:33.317Z,76.78
2022-07-30T12:18:35.431Z,77.49
2022-07-30T12:21:37.591Z,77.54
2022-07-30T12:24:39.321Z,77.47
2022-07-30T12:27:52.035Z,78.24
2022-07-30T12:30:55.441Z,78.24
2022-07-30T12:33:59.140Z,76.94
2022-07-30T12:37:10.263Z,77.72
2022-07-30T12:40:15.284Z,77.86
2022-07-30T12:43:17.623Z,78.52
2022-07-30T12:46:27.227Z,78.94
2022-07-30T12:49:36.795Z,78.74
2022-07-30T12:52:48.965Z,78.15
2022-07-30T12:55:50.638Z,77.61
2022-07-30T12:58:53.644Z,77.26
2022-07-30T13:01:57.505Z,77.02
2022-07-30T13:05:11.125Z,77.62
2022-07-30T13:08:14.013Z,78.23
2022-07-30T13:11:17.218Z,77.37
2022-07-30T13:14:19.494Z,77.84
2022-07-30T13:17:28.343Z,78.16
2022-07-30T13:20:30.504Z,78.13
2022-07-30T13:23:34.712Z,77.12
2022-07-30T13:26:36.799Z,76.68
2022-07-30T13:29:38.544Z,77.67
2022-07-30T13:32:40.342Z,76.69
2022-07-30T13:35:42.482Z,75.54
2022-07-30T13:38:45.605Z,74.79
2022-07-30T13:41:54.029Z,74.67
2022-07-30T13:44:55.786Z,74.60
2022-07-30T13:47:57.486Z,75.11
2022-07-30T13:51:03.764Z,75.30
2022-07-30T13:54:05.536Z,75.22
2022-07-30T13:57:07.375Z,75.04
2022-07-30T14:00:09.771Z,75.02
2022-07-30T14:03:11.965Z,74.83
2022-07-30T14:06:13.724Z,75.05
2022-07-30T14:09:15.629Z,75.32
2022-07-30T14:12:17.394Z,75.18
2022-07-30T14:15:19.081Z,75.40
2022-07-30T14:18:20.903Z,74.55
2022-07-30T14:21:22.669Z,74.30
2022-07-30T14:24:24.386Z,74.16
2022-07-30T14:27:26.550Z,74.25
2022-07-30T14:30:28.398Z,74.43
2022-07-30T14:33:30.112Z,74.35
2022-07-30T14:36:32.774Z,74.00
2022-07-30T14:39:34.617Z,74.20
2022-07-30T14:42:36.603Z,74.74
2022-07-30T14:45:39.301Z,75.08
2022-07-30T14:48:41.127Z,75.59
2022-07-30T14:51:43.002Z,75.81
2022-07-30T14:54:44.817Z,76.13
2022-07-30T14:57:48.056Z,76.61
2022-07-30T15:00:49.754Z,77.10
2022-07-30T15:03:51.794Z,77.44
2022-07-30T15:06:53.462Z,77.89
2022-07-30T15:09:55.387Z,78.60
2022-07-30T15:12:57.394Z,78.79
2022-07-30T15:15:59.813Z,79.05
2022-07-30T15:19:01.593Z,79.76
2022-07-30T15:22:04.303Z,79.84
2022-07-30T15:25:06.824Z,80.23
2022-07-30T15:28:08.900Z,80.60
2022-07-30T15:31:10.856Z,81.08
2022-07-30T15:34:12.883Z,81.63
2022-07-30T15:37:15.761Z,82.01
2022-07-30T15:40:17.635Z,82.42
2022-07-30T15:43:19.361Z,82.99
2022-07-30T15:46:21.123Z,83.40
2022-07-30T15:49:23.082Z,83.98
2022-07-30T15:52:24.862Z,84.66
2022-07-30T15:55:27.186Z,85.29
2022-07-30T15:58:29.059Z,85.69
2022-07-30T16:01:30.892Z,86.22
2022-07-30T16:04:33.200Z,87.46
2022-07-30T16:07:35.025Z,88.11
2022-07-30T16:10:37.927Z,87.82
2022-07-30T16:13:39.603Z,88.10
2022-07-30T16:16:41.656Z,88.53
2022-07-30T16:19:45.065Z,88.88
2022-07-30T16:22:47.548Z,89.00
2022-07-30T16:25:49.380Z,89.48
2022-07-30T16:28:51.156Z,90.34
2022-07-30T16:31:53.056Z,90.70
2022-07-30T16:34:54.952Z,90.73
2022-07-30T16:38:02.805Z,90.91
2022-07-30T16:41:04.720Z,91.09
2022-07-30T16:44:06.532Z,91.23
2022-07-30T16:47:13.616Z,91.72
2022-07-30T16:50:15.943Z,91.70
2022-07-30T16:53:18.502Z,91.82
2022-07-30T16:56:20.299Z,91.74
2022-07-30T16:59:22.798Z,92.01
2022-07-30T17:02:25.507Z,92.18
2022-07-30T17:05:27.400Z,92.13
2022-07-30T17:08:29.147Z,92.28
2022-07-30T17:11:47.273Z,92.46
2022-07-30T17:14:49.880Z,92.56
2022-07-30T17:17:51.959Z,92.84
2022-07-30T17:20:54.289Z,93.15
2022-07-30T17:23:56.442Z,93.36
2022-07-30T17:26:58.297Z,93.45
2022-07-30T17:30:01.523Z,93.36
2022-07-30T17:33:06.295Z,93.57
2022-07-30T17:36:08.822Z,93.69
2022-07-30T17:39:10.520Z,94.40
2022-07-30T17:42:32.296Z,94.14
2022-07-30T17:45:35.771Z,94.38
2022-07-30T17:48:37.504Z,94.56
2022-07-30T17:51:39.826Z,94.53
2022-07-30T17:54:42.749Z,94.50
2022-07-30T17:57:45.619Z,94.75
2022-07-30T18:00:49.042Z,94.85
2022-07-30T18:03:50.983Z,94.89
2022-07-30T18:06:52.844Z,94.75
2022-07-30T18:09:55.102Z,94.75
2022-07-30T18:12:57.556Z,94.94
2022-07-30T18:15:59.464Z,95.04
2022-07-30T18:19:01.384Z,95.20
2022-07-30T18:22:04.550Z,95.52
2022-07-30T18:25:07.615Z,95.55
2022-07-30T18:28:09.729Z,95.62
2022-07-30T18:31:13.514Z,95.64
2022-07-30T18:34:15.556Z,95.89
2022-07-30T18:37:17.392Z,96.07
2022-07-30T18:40:23.650Z,96.18
2022-07-30T18:43:29.569Z,96.37
2022-07-30T18:46:31.514Z,96.74
2022-07-30T18:49:37.833Z,96.90
2022-07-30T18:52:40.398Z,97.11
2022-07-30T18:55:43.640Z,97.27
2022-07-30T18:58:45.924Z,97.61
2022-07-30T19:01:47.803Z,97.95
2022-07-30T19:04:49.687Z,98.41
2022-07-30T19:07:57.316Z,98.85
2022-07-30T19:11:01.075Z,99.47
2022-07-30T19:14:02.831Z,99.62
2022-07-30T19:17:13.652Z,99.80
2022-07-30T19:20:16.212Z,100.00
2022-07-30T19:23:18.748Z,100.00
2022-07-30T19:26:20.579Z,100.00
2022-07-30T19:29:22.331Z,100.00
2022-07-30T19:32:24.881Z,100.00
2022-07-30T19:35:26.645Z,100.00
2022-07-30T19:38:28.938Z,100.00
2022-07-30T19:41:35.781Z,100.00
2022-07-30T19:44:41.179Z,100.00
2022-07-30T19:47:43.299Z,100.00
2022-07-30T19:50:46.520Z,100.00
2022-07-30T19:53:48.998Z,100.00
2022-07-30T19:56:50.965Z,100.00
2022-07-30T20:00:00.104Z,100.00
2022-07-30T20:03:06.047Z,100.00
2022-07-30T20:06:08.417Z,100.00
2022-07-30T20:09:17.069Z,100.00
2022-07-30T20:12:18.928Z,100.00
2022-07-30T20:15:20.700Z,100.00
2022-07-30T20:18:29.128Z,100.00
2022-07-30T20:21:56.511Z,100.00
2022-07-30T20:24:53.652Z,100.00
2022-07-30T20:27:55.583Z,100.00
2022-07-30T20:30:59.752Z,100.00
2022-07-30T20:34:02.262Z,100.00
2022-07-30T20:37:16.601Z,100.00
2022-07-30T20:40:26.637Z,100.00
2022-07-30T20:43:29.250Z,100.00
2022-07-30T20:46:32.134Z,100.00
2022-07-30T20:49:35.799Z,100.00
2022-07-30T20:52:40.473Z,100.00
2022-07-30T20:55:42.949Z,100.00
2022-07-30T20:58:47.307Z,100.00
2022-07-30T21:01:50.129Z,100.00
2022-07-30T21:04:56.703Z,100.00
2022-07-30T21:08:01.552Z,100.00
2022-07-30T21:11:04.026Z,100.00
2022-07-30T21:14:09.938Z,100.00
2022-07-30T21:17:12.347Z,100.00
2022-07-30T21:20:14.276Z,100.00
2022-07-30T21:23:27.186Z,100.00
2022-07-30T21:26:29.404Z,100.00
2022-07-30T21:29:31.807Z,100.00
2022-07-30T21:32:33.718Z,100.00
2022-07-30T21:35:36.750Z,100.00
2022-07-30T21:38:42.940Z,100.00
2022-07-30T21:41:44.630Z,100.00
2022-07-30T21:44:46.432Z,100.00
2022-07-30T21:47:48.364Z,100.00
2022-07-30T21:50:51.072Z,100.00
2022-07-30T21:53:52.739Z,100.00
2022-07-30T21:56:56.345Z,100.00
2022-07-30T21:59:59.921Z,100.00
2022-07-30T22:03:01.786Z,100.00
2022-07-30T22:06:17.794Z,100.00
2022-07-30T22:09:33.466Z,100.00
2022-07-30T22:12:35.941Z,100.00
2022-07-30T22:15:39.026Z,100.00
2022-07-30T22:18:41.281Z,100.00
2022-07-30T22:21:46.963Z,100.00
2022-07-30T22:24:49.499Z,100.00
2022-07-30T22:27:56.905Z,100.00
2022-07-30T22:30:59.103Z,100.00
2022-07-30T22:34:00.846Z,100.00
2022-07-30T22:37:02.696Z,100.00
2022-07-30T22:40:08.288Z,100.00
2022-07-30T22:43:12.779Z,100.00
2022-07-30T22:46:30.556Z,100.00
2022-07-30T22:49:46.389Z,100.00
2022-07-30T22:52:58.623Z,100.00
2022-07-30T22:56:20.310Z,100.00
2022-07-30T22:59:29.134Z,100.00
2022-07-30T23:02:48.802Z,100.00
2022-07-30T23:05:55.131Z,100.00
2022-07-30T23:08:58.958Z,100.00
2022-07-30T23:12:01.973Z,100.00
2022-07-30T23:15:05.932Z,100.00
2022-07-30T23:18:07.653Z,100.00
2022-07-30T23:21:10.070Z,100.00
2022-07-30T23:24:11.964Z,100.00
2022-07-30T23:27:19.699Z,100.00
2022-07-30T23:30:21.486Z,100.00
2022-07-30T23:33:23.228Z,100.00
2022-07-30T23:36:25.130Z,100.00
2022-07-30T23:39:26.952Z,100.00
2022-07-30T23:42:28.910Z,100.00
2022-07-30T23:45:30.723Z,100.00
2022-07-30T23:48:32.462Z,100.00
2022-07-30T23:51:34.213Z,100.00
2022-07-30T23:54:36.840Z,100.00
2022-07-30T23:57:39.490Z,100.00
